x

Ilm2 - 5 Miles Se Of Wrightsville Beach, Nc (41038) Weather Station

4:00 - Mon 26th Jan 2015 All times are EST. -5 hours from GMT.

  • Wind
    9mph, 11mph gusts
  • Sea Temp 51°f
  • Aire Temp 54°f
  • Sea Pressure 1006.7mb
  • Ilm2 - 5 Miles Se Of Wrightsville Beach, Nc
  • Ilm2 - 5 Miles Se Of Wrightsville Beach, Nc

More Historic Weather Station data

Upgrade to MSW Pro to gain access to the past 30 days of data for over 8000 Wavebouys and Weather Stations around the globe.

Join Pro

Comparision Forecast

View Surf forecast
   
lun 01/26 4:00 9 11 mph 1006.7mb 51f 54f
3:00 9 11 mph 1008mb 51f 54f
2:00 13 16 mph 1008.7mb 51f 53f
1:00 11 13 mph 1009.7mb 51f 52f
12:00 16 18 mph 1010mb 51f 52f
dom 01/25 11:00 7 9 mph 1010.7mb 51f 54f
10:00 4 7 mph 1010.9mb 51f 53f
9:00 9
mph
1011.4mb 51f 53f
8:00 11
mph
1011.7mb 51f 53f
7:00 9 11 mph 1012mb 51f 52f
6:00 7 9 mph 1012.3mb 51f 51f
5:00 11 13 mph 1012.7mb 52f 51f
4:00 9
mph
1013mb 52f 51f
3:00 9
mph
1012.8mb 52f 49f
2:00 9
mph
1013.6mb 52f 49f
1:00 4 7 mph 1014.1mb 51f 48f
12:00 2 4 mph 1015.3mb 51f 49f
11:00 2
mph
1015.6mb 51f 48f
10:00 2
mph
1015.9mb 51f 48f
9:00 9 11 mph 1015.2mb 51f 44f
8:00 7 9 mph 1014.9mb 51f 44f
7:00 7 9 mph 1014.3mb 51f 43f
6:00 11 13 mph 1013.8mb 51f 44f
5:00 13 18 mph 1013mb 51f 44f
4:00 11 13 mph 1012.1mb 51f 45f
3:00 13 16 mph 1012.2mb 51f 46f
2:00 13 16 mph 1011.7mb 51f 47f
1:00 16 20 mph 1011mb 51f 48f
12:00 16
mph
1010.7mb 51f 48f
sáb 01/24 11:00 16 18 mph 1010mb 51f 49f
10:00 18 22 mph 1009.6mb 51f 49f
9:00 18 22 mph 1009.1mb 51f 49f
8:00 16 20 mph 1008.8mb 51f 48f
7:00 13 18 mph 1008mb 51f 49f
6:00 16 18 mph 1007.1mb 51f 49f
5:00 18 22 mph 1005.7mb 51f 49f
4:00 20 27 mph 1004.5mb 51f 49f
3:00 20 27 mph 1003.3mb 51f 48f
2:00 22 29 mph 1002.8mb 51f 47f
1:00 29 34 mph 1001.5mb 51f 47f
12:00 20 27 mph 1001mb 51f 48f
11:00 20 25 mph 1001.1mb 51f 48f
10:00 13 18 mph 1000mb 51f 51f
9:00 16 22 mph 998.5mb 51f 53f
8:00 34 49 mph 998.2mb 51f 60f
7:00 22 27 mph 998.2mb 51f 59f
6:00 18 20 mph 998.9mb 51f 58f
5:00 27 31 mph 999.9mb 51f 61f
4:00 22 27 mph 1001.2mb 51f 60f
3:00 18 20 mph 1002.3mb 51f 60f
2:00 20 22 mph 1003mb 52f 60f
1:00 22 27 mph 1004.5mb 52f 59f
12:00 22 27 mph 1005.5mb 52f 60f
vie 01/23 11:00 20 25 mph 1008.1mb 53f 59f
10:00 16 18 mph 1009.8mb 53f 61f
9:00 11 13 mph 1011.3mb 53f 60f
8:00 20 22 mph 1012mb 53f 62f
7:00 13 18 mph 1013.4mb 52f 60f
6:00 20 25 mph 1014.2mb 52f 61f
5:00 13 18 mph 1015.6mb 51f 59f
4:00 16 20 mph 1016.8mb 51f 51f
3:00 20 22 mph 1017.5mb 51f 50f
2:00 20 25 mph 1018.9mb 51f 51f
1:00 25 31 mph 1019.8mb 52f 51f
12:00 20 27 mph 1021.7mb 52f 51f
11:00 22 27 mph 1023.3mb 53f 51f
10:00 25 29 mph 1023.7mb 53f 52f
9:00 20 27 mph 1024mb 53f 51f
8:00 22 29 mph 1024.9mb 53f 51f
7:00 25 29 mph 1024.7mb 52f 49f
6:00 25 29 mph 1025.1mb 52f 49f
5:00 20 25 mph 1025.5mb 52f 50f
4:00 22 27 mph 1025.3mb 52f 49f
3:00 22 27 mph 1025.4mb 52f 50f
2:00 18 22 mph 1025.5mb 52f 50f
1:00 16 20 mph 1026.1mb 52f 51f
12:00 18 22 mph 1025.7mb 52f 53f
jue 01/22 11:00 16 20 mph 1025.6mb 52f 56f
10:00 9 11 mph 1026.1mb 53f 54f
9:00 9 11 mph 1026.1mb 53f 54f
8:00 9 11 mph 1025.9mb 53f 54f
7:00 9 11 mph 1025.8mb 53f 57f
6:00 9 11 mph 1025.5mb 52f 56f
5:00 9
mph
1025.2mb 52f 56f
4:00 9 11 mph 1024.8mb 52f 56f
3:00 9 11 mph 1025mb 52f 55f
2:00 7 9 mph 1025.1mb 52f 53f
1:00 7
mph
1025.5mb 52f 51f
12:00 7 9 mph 1026.3mb 52f 49f
11:00 9
mph
1026.8mb 52f 47f